Time;durP1;ratioP1;P1;durP2;ratioP2;P2;SDS_P1;SDS_P2;PMS_P1;PMS_P2;Temp;Humidity;BMP_temperature;BMP_pressure;BME280_temperature;BME280_humidity;BME280_pressure;Samples;Min_cycle;Max_cycle;Signal;HPM_P1;HPM_P2
2023/09/21 00:02:17;;;;;;;1.30;1.00;;;;;;;21.33;58.45;95787.88;10284566;28;20046;-25
2023/09/21 00:07:18;;;;;;;1.57;1.17;;;;;;;21.32;58.41;95787.03;10285525;28;20121;-25
2023/09/21 00:12:18;;;;;;;1.50;1.33;;;;;;;21.29;58.39;95784.56;10285053;28;20046;-25
2023/09/21 00:17:18;;;;;;;1.63;1.37;;;;;;;21.33;58.31;95778.53;10285916;28;20309;-25
2023/09/21 00:22:19;;;;;;;1.40;1.30;;;;;;;21.32;58.49;95771.75;10286857;28;20290;-25
2023/09/21 00:27:19;;;;;;;1.60;1.30;;;;;;;21.33;58.38;95772.59;10291910;28;20031;-25
2023/09/21 00:32:20;;;;;;;1.97;1.23;;;;;;;21.33;58.21;95764.97;10293046;28;20046;-25
2023/09/21 00:37:20;;;;;;;1.58;1.23;;;;;;;21.30;58.39;95755.69;10289980;28;20058;-24
2023/09/21 00:42:22;;;;;;;1.55;1.27;;;;;;;21.34;58.51;95749.66;10291304;28;20026;-25
2023/09/21 00:47:22;;;;;;;1.17;1.07;;;;;;;21.33;58.35;95753.09;10289158;28;20034;-24
2023/09/21 00:52:23;;;;;;;2.30;1.55;;;;;;;21.33;58.46;95750.53;10292227;28;20034;-25
2023/09/21 00:57:24;;;;;;;1.45;1.30;;;;;;;21.32;58.22;95746.28;10289276;28;20409;-25
2023/09/21 01:02:25;;;;;;;2.78;1.45;;;;;;;21.30;58.42;95737.06;10290971;28;20026;-24
2023/09/21 01:07:26;;;;;;;2.65;1.50;;;;;;;21.29;58.36;95736.19;10288735;28;20106;-25
2023/09/21 01:12:27;;;;;;;1.83;1.33;;;;;;;21.30;58.27;95735.31;10288523;28;20051;-25
2023/09/21 01:17:30;;;;;;;2.33;1.40;;;;;;;21.29;58.35;95730.28;10292146;28;20524;-25
2023/09/21 01:22:31;;;;;;;1.90;1.15;;;;;;;21.30;58.36;95709.88;10285807;28;20121;-25
2023/09/21 01:27:34;;;;;;;1.92;1.45;;;;;;;21.29;58.28;95710.75;10290822;28;20035;-25
2023/09/21 01:32:34;;;;;;;2.08;1.60;;;;;;;21.30;58.23;95704.78;10299221;28;20364;-24
2023/09/21 01:37:35;;;;;;;1.30;1.13;;;;;;;21.30;58.24;95707.31;10287214;28;20049;-25
2023/09/21 01:42:36;;;;;;;1.42;1.17;;;;;;;21.29;58.15;95703.09;10284776;28;20065;-26
2023/09/21 01:47:36;;;;;;;3.25;1.40;;;;;;;21.24;58.35;95687.09;10290092;28;20042;-25
2023/09/21 01:52:38;;;;;;;1.40;1.17;;;;;;;21.25;58.43;95685.41;10286621;28;20490;-24
2023/09/21 01:57:39;;;;;;;1.83;1.30;;;;;;;21.27;58.26;95671.78;10287975;28;20038;-25
2023/09/21 02:02:40;;;;;;;1.45;1.35;;;;;;;21.26;58.50;95667.56;10292400;28;20445;-25
2023/09/21 02:07:45;;;;;;;1.93;1.33;;;;;;;21.27;58.34;95665.81;10285672;28;20101;-25
2023/09/21 02:12:57;;;;;;;1.58;1.00;;;;;;;21.28;58.21;95660.72;10287774;28;20046;-24
2023/09/21 02:17:57;;;;;;;1.35;1.25;;;;;;;21.30;58.30;95664.03;10303986;28;20456;-25
2023/09/21 02:23:00;;;;;;;2.67;1.25;;;;;;;21.25;58.31;95658.25;10285767;28;20061;-25
2023/09/21 02:28:09;;;;;;;1.40;1.25;;;;;;;21.29;58.31;95657.28;10284149;28;20130;-24
2023/09/21 02:33:10;;;;;;;1.33;1.17;;;;;;;21.29;58.25;95646.28;10302140;28;20038;-25
2023/09/21 02:38:11;;;;;;;1.17;0.85;;;;;;;21.27;58.15;95655.66;10286087;28;20043;-25
2023/09/21 02:43:13;;;;;;;1.58;1.35;;;;;;;21.29;58.13;95648.81;10288399;28;20023;-25
2023/09/21 02:48:15;;;;;;;1.85;1.25;;;;;;;21.28;58.44;95647.97;10285183;28;20066;-24
2023/09/21 02:53:17;;;;;;;1.58;1.45;;;;;;;21.29;58.25;95639.47;10285309;28;20089;-24
2023/09/21 02:58:19;;;;;;;1.40;1.15;;;;;;;21.27;58.23;95631.03;10285273;28;20058;-25
2023/09/21 03:03:23;;;;;;;1.60;1.37;;;;;;;21.28;58.40;95632.69;10285698;28;20485;-25
2023/09/21 03:08:26;;;;;;;1.20;1.10;;;;;;;21.28;58.21;95626.75;10284949;28;21131;-25
2023/09/21 03:13:30;;;;;;;1.70;1.43;;;;;;;21.26;57.73;95619.19;10283736;28;20085;-25
2023/09/21 03:18:31;;;;;;;1.65;1.50;;;;;;;21.25;58.49;95617.53;10281177;28;20045;-25
2023/09/21 03:23:31;;;;;;;1.50;1.40;;;;;;;21.25;57.94;95617.53;10285195;28;20077;-25
2023/09/21 03:28:34;;;;;;;1.73;1.43;;;;;;;21.26;58.19;95603.91;10283661;28;20038;-25
2023/09/21 03:33:34;;;;;;;1.38;1.10;;;;;;;21.27;58.33;95609.81;10276892;28;20090;-25
2023/09/21 03:38:35;;;;;;;1.70;1.30;;;;;;;21.18;58.53;95603.28;10298952;28;20031;-25
2023/09/21 03:43:36;;;;;;;1.40;1.30;;;;;;;21.25;58.50;95603.94;10282103;28;20042;-25
2023/09/21 03:48:37;;;;;;;1.13;1.02;;;;;;;21.25;58.33;95602.25;10286186;28;20031;-25
2023/09/21 03:53:39;;;;;;;2.33;1.50;;;;;;;21.24;58.56;95594.66;10296070;28;20039;-25
2023/09/21 03:58:40;;;;;;;2.10;1.67;;;;;;;21.24;58.35;95585.28;10288549;28;20042;-25
2023/09/21 04:03:42;;;;;;;1.60;1.33;;;;;;;21.23;58.50;95578.53;10291945;28;20034;-25
2023/09/21 04:08:49;;;;;;;3.10;1.83;;;;;;;21.20;58.38;95577.78;10293282;28;20031;-26
2023/09/21 04:13:49;;;;;;;2.10;1.67;;;;;;;21.24;58.30;95576.81;10291523;28;20532;-25
2023/09/21 04:18:50;;;;;;;1.50;1.30;;;;;;;21.29;58.35;95569.91;10291081;28;20082;-26
2023/09/21 04:23:50;;;;;;;2.03;1.40;;;;;;;21.30;58.08;95572.38;10291870;28;20030;-26
2023/09/21 04:28:51;;;;;;;2.13;1.50;;;;;;;21.34;57.99;95570.59;10274039;28;20034;-27
2023/09/21 04:33:51;;;;;;;1.23;1.13;;;;;;;21.33;58.09;95569.78;10290323;28;20039;-26
2023/09/21 04:38:52;;;;;;;1.90;1.20;;;;;;;21.30;58.29;95563.94;10307510;28;20084;-26
2023/09/21 04:43:52;;;;;;;1.87;1.47;;;;;;;21.35;58.27;95568.00;10290774;28;20498;-26
2023/09/21 04:48:53;;;;;;;3.35;1.70;;;;;;;21.36;58.56;95572.22;10290674;28;20034;-26
2023/09/21 04:53:53;;;;;;;2.70;1.80;;;;;;;21.37;59.07;95566.25;10305489;28;20035;-28
2023/09/21 04:58:55;;;;;;;2.70;1.67;;;;;;;21.34;59.03;95558.69;10289294;28;20289;-26
2023/09/21 05:03:56;;;;;;;4.10;1.70;;;;;;;21.36;58.78;95551.00;10289811;28;20120;-26
2023/09/21 05:08:57;;;;;;;4.13;1.58;;;;;;;21.36;58.33;95553.53;10289434;28;20493;-25
2023/09/21 05:13:58;;;;;;;1.65;1.27;;;;;;;21.38;58.70;95557.72;10286292;28;20512;-27
2023/09/21 05:18:58;;;;;;;1.95;1.50;;;;;;;21.35;58.23;95556.97;10289569;28;20029;-27
2023/09/21 05:23:58;;;;;;;3.63;1.60;;;;;;;21.32;58.15;95547.69;10288876;28;20054;-27
2023/09/21 05:28:59;;;;;;;1.23;1.13;;;;;;;21.31;58.21;95546.03;10289449;28;20356;-27
2023/09/21 05:34:00;;;;;;;2.77;1.53;;;;;;;21.37;58.61;95556.06;10290708;28;20042;-26
2023/09/21 05:39:01;;;;;;;2.47;1.20;;;;;;;21.35;58.32;95552.72;10288432;28;20289;-27
2023/09/21 05:44:01;;;;;;;1.52;1.08;;;;;;;21.33;58.40;95554.50;10288523;28;20054;-26
2023/09/21 05:49:03;;;;;;;1.40;1.30;;;;;;;21.35;58.37;95562.06;10289549;28;20037;-27
2023/09/21 05:54:04;;;;;;;1.50;1.33;;;;;;;21.37;58.31;95563.69;10289014;28;20046;-27
2023/09/21 05:59:04;;;;;;;3.17;1.63;;;;;;;21.38;57.91;95562.81;10288317;28;20445;-26
2023/09/21 06:04:05;;;;;;;1.73;1.13;;;;;;;21.42;58.27;95566.94;10288416;28;20034;-28
2023/09/21 06:09:07;;;;;;;2.03;1.52;;;;;;;21.40;58.22;95558.50;10287592;28;20862;-27
2023/09/21 06:14:08;;;;;;;1.30;1.10;;;;;;;21.41;58.37;95559.34;10287357;28;20121;-27
2023/09/21 06:19:11;;;;;;;1.30;1.20;;;;;;;21.38;58.34;95549.25;10284725;28;20066;-26
2023/09/21 06:24:12;;;;;;;1.23;1.13;;;;;;;21.41;58.30;95542.34;10288634;28;20066;-26
2023/09/21 06:29:12;;;;;;;1.42;1.33;;;;;;;21.41;58.41;95542.34;10287039;28;20129;-27
2023/09/21 06:34:12;;;;;;;1.60;0.98;;;;;;;21.41;58.46;95537.25;10285344;28;20038;-27
2023/09/21 06:39:16;;;;;;;1.73;1.60;;;;;;;21.40;58.28;95530.50;10291232;28;20027;-27
2023/09/21 06:44:18;;;;;;;1.33;1.13;;;;;;;21.41;58.52;95537.25;10285948;28;20489;-27
2023/09/21 06:49:19;;;;;;;1.48;1.20;;;;;;;21.42;58.24;95536.38;10289312;28;20051;-26
2023/09/21 06:54:19;;;;;;;1.38;1.27;;;;;;;21.41;58.43;95531.34;10287315;28;20031;-27
2023/09/21 06:59:22;;;;;;;1.60;1.40;;;;;;;21.38;58.40;95527.16;10286301;28;20034;-26
2023/09/21 07:04:22;;;;;;;1.17;1.00;;;;;;;21.43;58.28;95524.47;10285317;28;20042;-26
2023/09/21 07:09:23;;;;;;;4.80;1.65;;;;;;;21.41;59.96;95513.50;10286681;28;20041;-27
2023/09/21 07:14:26;;;;;;;1.92;1.50;;;;;;;21.38;59.48;95511.88;10286681;28;20062;-27
2023/09/21 07:19:26;;;;;;;1.52;1.35;;;;;;;21.42;59.00;95512.63;10285483;28;20027;-27
2023/09/21 07:24:28;;;;;;;3.03;1.80;;;;;;;21.42;59.53;95510.94;10286420;28;20050;-27
2023/09/21 07:29:30;;;;;;;1.92;1.30;;;;;;;21.43;59.40;95520.22;10286630;28;20294;-27
2023/09/21 07:34:32;;;;;;;3.30;1.23;;;;;;;21.44;59.02;95514.25;10282467;28;20043;-26
2023/09/21 07:39:33;;;;;;;1.77;1.42;;;;;;;21.48;58.74;95513.25;10272567;28;20411;-27
2023/09/21 07:44:33;;;;;;;1.30;1.20;;;;;;;21.51;58.88;95508.09;10278036;28;20039;-27
2023/09/21 07:49:33;;;;;;;3.05;1.77;;;;;;;21.54;59.13;95502.06;10278983;28;20074;-27
2023/09/21 07:54:34;;;;;;;14.67;1.97;;;;;;;21.52;61.07;95499.56;10273983;28;20042;-29
2023/09/21 07:59:34;;;;;;;4.77;2.00;;;;;;;21.54;60.53;95502.91;10289061;28;20661;-27
2023/09/21 08:04:38;;;;;;;4.47;1.50;;;;;;;21.50;60.19;95491.16;10280092;28;20489;-27
2023/09/21 08:09:39;;;;;;;5.20;1.80;;;;;;;21.52;59.98;95484.28;10284500;28;20456;-26
2023/09/21 08:14:39;;;;;;;4.15;1.55;;;;;;;21.53;59.86;95474.91;10284705;28;20089;-26
2023/09/21 08:19:40;;;;;;;9.07;3.97;;;;;;;21.50;59.79;95458.03;10279411;28;20039;-26
2023/09/21 08:24:41;;;;;;;4.30;1.80;;;;;;;21.53;59.95;95455.41;10283981;28;20030;-26
2023/09/21 08:29:41;;;;;;;5.68;2.83;;;;;;;21.54;59.85;95444.31;10284976;28;20045;-27
2023/09/21 08:34:45;;;;;;;6.50;2.30;;;;;;;21.48;59.66;95430.97;10281768;28;20161;-27
2023/09/21 08:39:46;;;;;;;8.98;4.10;;;;;;;21.53;59.90;95431.63;10284045;28;20035;-27
2023/09/21 08:44:46;;;;;;;11.50;3.97;;;;;;;21.51;59.91;95415.56;10283891;28;20039;-27
2023/09/21 08:49:47;;;;;;;6.82;2.60;;;;;;;21.53;59.75;95424.84;10289256;28;20034;-27
2023/09/21 08:54:48;;;;;;;5.05;2.42;;;;;;;21.54;59.74;95418.00;10290829;28;20037;-26
2023/09/21 08:59:51;;;;;;;3.45;2.25;;;;;;;21.54;59.88;95426.50;10292105;28;20027;-27
2023/09/21 09:04:52;;;;;;;3.33;2.45;;;;;;;21.52;59.99;95414.69;10290631;28;20035;-27
2023/09/21 09:09:53;;;;;;;5.13;2.03;;;;;;;21.51;60.33;95416.41;10290018;28;20059;-27
2023/09/21 09:14:57;;;;;;;5.73;1.77;;;;;;;21.52;60.40;95405.34;10292492;28;20035;-27
2023/09/21 09:20:02;;;;;;;4.68;2.95;;;;;;;21.52;60.84;95402.81;10311644;28;20058;-26
2023/09/21 09:25:07;;;;;;;5.00;2.58;;;;;;;21.52;61.01;95401.94;10290365;28;20062;-27
2023/09/21 09:30:08;;;;;;;3.63;2.67;;;;;;;21.51;60.78;95398.59;10295563;28;20481;-27
2023/09/21 09:35:13;;;;;;;4.82;2.45;;;;;;;21.52;60.71;95399.41;10297525;28;20580;-26
2023/09/21 09:40:24;;;;;;;2.72;1.90;;;;;;;21.50;60.80;95386.75;10288722;28;20069;-27
2023/09/21 09:45:25;;;;;;;3.08;1.80;;;;;;;21.51;60.80;95385.84;10297563;28;20038;-27
2023/09/21 09:50:31;;;;;;;2.83;1.92;;;;;;;21.52;60.98;95376.50;10286658;28;20038;-26
2023/09/21 09:55:33;;;;;;;4.10;1.80;;;;;;;21.51;61.38;95375.69;10288133;28;20054;-27
2023/09/21 10:00:35;;;;;;;3.00;2.00;;;;;;;21.53;61.36;95371.34;10289807;28;20042;-27
2023/09/21 10:05:36;;;;;;;4.22;1.13;;;;;;;21.55;61.76;95359.41;10296328;28;20039;-27
2023/09/21 10:10:44;;;;;;;5.10;1.25;;;;;;;21.55;61.07;95356.03;10300539;28;20445;-26
2023/09/21 10:15:48;;;;;;;2.40;2.03;;;;;;;21.53;60.89;95350.97;10289031;28;20035;-27
2023/09/21 10:20:49;;;;;;;2.08;1.75;;;;;;;21.51;60.88;95345.13;10295065;28;20089;-27
2023/09/21 10:25:49;;;;;;;3.53;2.00;;;;;;;21.51;60.88;95355.31;10296203;28;20078;-25
2023/09/21 10:30:52;;;;;;;2.47;1.63;;;;;;;21.51;60.79;95352.75;10296288;28;20320;-26
2023/09/21 10:35:52;;;;;;;1.45;1.35;;;;;;;21.53;60.70;95345.88;10288262;28;20126;-28
2023/09/21 10:40:53;;;;;;;2.30;1.60;;;;;;;21.51;60.65;95334.94;10296920;28;20049;-27
2023/09/21 10:45:58;;;;;;;3.88;1.73;;;;;;;21.50;60.60;95323.09;10288969;28;20433;-27
2023/09/21 10:51:00;;;;;;;3.88;1.77;;;;;;;21.51;60.56;95319.66;10298427;28;20109;-26
2023/09/21 10:56:01;;;;;;;3.72;1.77;;;;;;;21.50;60.51;95312.91;10295145;28;20054;-27
2023/09/21 11:01:03;;;;;;;4.55;1.50;;;;;;;21.49;60.27;95306.13;10288871;28;20053;-28
2023/09/21 11:06:05;;;;;;;3.70;1.63;;;;;;;21.49;60.27;95285.75;10284492;28;20034;-27
2023/09/21 11:11:05;;;;;;;2.92;1.85;;;;;;;21.49;60.36;95285.75;10285077;28;20030;-26
2023/09/21 11:16:06;;;;;;;3.17;1.53;;;;;;;21.49;60.54;95275.56;10287374;28;20031;-27
2023/09/21 11:21:09;;;;;;;1.40;1.23;;;;;;;21.50;60.21;95268.75;10285686;28;20030;-26
2023/09/21 11:26:14;;;;;;;3.47;1.35;;;;;;;21.48;60.25;95263.72;10287954;28;20037;-27
2023/09/21 11:31:15;;;;;;;3.53;1.80;;;;;;;21.49;60.20;95255.19;10289083;28;20031;-27
2023/09/21 11:36:15;;;;;;;1.88;1.27;;;;;;;21.50;60.08;95256.88;10284609;28;20030;-27
2023/09/21 11:41:16;;;;;;;3.27;1.47;;;;;;;21.51;60.17;95253.44;10282306;28;20034;-27
2023/09/21 11:46:16;;;;;;;1.43;1.33;;;;;;;21.51;60.25;95243.25;10289777;28;20026;-27
2023/09/21 11:51:17;;;;;;;2.23;1.30;;;;;;;21.50;60.25;95231.41;10286373;28;20294;-27
2023/09/21 11:56:18;;;;;;;2.53;1.20;;;;;;;21.50;60.18;95216.13;10295452;28;20034;-27
2023/09/21 12:01:19;;;;;;;2.10;1.40;;;;;;;21.52;60.16;95213.50;10298315;28;20403;-28
2023/09/21 12:06:20;;;;;;;2.13;1.60;;;;;;;21.52;60.25;95201.63;10284905;28;20034;-27
2023/09/21 12:11:23;;;;;;;1.53;1.23;;;;;;;21.50;60.08;95200.84;10284278;28;20035;-26
2023/09/21 12:16:23;;;;;;;2.00;1.30;;;;;;;21.53;59.97;95197.34;10293496;28;20125;-27
2023/09/21 12:21:25;;;;;;;1.73;1.20;;;;;;;21.51;59.97;95177.03;10288865;28;20106;-26
2023/09/21 12:26:25;;;;;;;2.03;1.25;;;;;;;21.51;59.96;95161.78;10296381;28;20321;-27
2023/09/21 12:31:27;;;;;;;1.87;1.40;;;;;;;21.51;59.99;95156.69;10293550;28;20035;-26
2023/09/21 12:36:28;;;;;;;1.98;1.40;;;;;;;21.51;60.00;95151.59;10282245;28;20061;-26
2023/09/21 12:41:30;;;;;;;2.58;1.38;;;;;;;21.50;59.79;95155.03;10290792;28;20409;-26
2023/09/21 12:46:32;;;;;;;1.88;1.42;;;;;;;21.51;59.98;95146.50;10292269;28;20097;-26
2023/09/21 12:51:33;;;;;;;1.52;1.05;;;;;;;21.51;59.90;95146.50;10287564;28;20043;-25
2023/09/21 12:56:34;;;;;;;1.75;1.20;;;;;;;21.52;60.19;95139.66;10288194;28;20042;-27
2023/09/21 13:01:35;;;;;;;2.80;1.20;;;;;;;21.50;59.90;95132.09;10297533;28;20276;-26
2023/09/21 13:06:38;;;;;;;1.73;1.30;;;;;;;21.51;60.17;95128.66;10293712;28;20038;-27
2023/09/21 13:11:38;;;;;;;1.98;1.42;;;;;;;21.51;59.99;95136.31;10299089;28;20042;-26
2023/09/21 13:16:40;;;;;;;1.10;1.00;;;;;;;21.51;60.04;95128.66;10291616;28;20043;-27
2023/09/21 13:21:41;;;;;;;4.03;1.77;;;;;;;21.51;59.95;95126.13;10289368;28;20031;-26
2023/09/21 13:26:42;;;;;;;1.85;1.33;;;;;;;21.52;60.06;95127.78;10290531;28;20042;-26
2023/09/21 13:31:42;;;;;;;2.33;1.33;;;;;;;21.53;59.88;95121.78;10298878;28;20085;-26
2023/09/21 13:36:43;;;;;;;6.83;1.67;;;;;;;21.54;59.79;95128.53;10282490;28;20038;-27
2023/09/21 13:41:52;;;;;;;3.90;1.35;;;;;;;21.57;59.55;95113.13;10289253;28;20440;-27
2023/09/21 13:46:54;;;;;;;4.05;1.15;;;;;;;21.56;59.62;95103.03;10291920;28;20218;-27
2023/09/21 13:51:54;;;;;;;5.45;1.48;;;;;;;21.54;60.08;95085.25;10294660;28;20086;-26
2023/09/21 13:56:55;;;;;;;3.05;1.13;;;;;;;21.53;59.97;95083.59;10288043;28;20121;-26
2023/09/21 14:01:55;;;;;;;5.50;1.30;;;;;;;21.55;59.89;95091.19;10289438;28;20109;-27
2023/09/21 14:06:56;;;;;;;5.60;1.47;;;;;;;21.54;59.80;95089.50;10289520;28;20038;-26
2023/09/21 14:11:58;;;;;;;4.43;1.00;;;;;;;21.56;59.62;95098.75;10290492;28;20792;-26
2023/09/21 14:17:01;;;;;;;4.03;1.67;;;;;;;21.54;59.72;95100.53;10287669;28;20093;-27
2023/09/21 14:22:02;;;;;;;3.40;1.55;;;;;;;21.53;59.85;95093.78;10290560;28;20081;-27
2023/09/21 14:27:03;;;;;;;3.42;1.20;;;;;;;21.52;59.88;95114.19;10300551;28;20042;-27
2023/09/21 14:32:04;;;;;;;1.50;1.07;;;;;;;21.52;59.79;95121.84;10288896;28;20035;-26
2023/09/21 14:37:05;;;;;;;2.30;0.90;;;;;;;21.53;59.78;95149.81;10289971;28;20047;-26
2023/09/21 14:42:07;;;;;;;3.22;1.27;;;;;;;21.52;60.02;95132.88;10285756;28;20110;-27
2023/09/21 14:47:08;;;;;;;5.15;1.20;;;;;;;21.55;60.03;95122.56;10289144;28;20037;-26
2023/09/21 14:52:08;;;;;;;9.43;1.70;;;;;;;21.52;60.17;95106.56;10291665;28;20046;-27
2023/09/21 14:57:09;;;;;;;6.03;1.73;;;;;;;21.54;59.92;95095.44;10289509;28;20090;-27
2023/09/21 15:02:14;;;;;;;3.75;1.23;;;;;;;21.55;59.73;95098.81;10288600;28;20454;-27
2023/09/21 15:07:15;;;;;;;2.17;0.98;;;;;;;21.54;59.75;95095.44;10289551;28;20039;-27
2023/09/21 15:12:16;;;;;;;2.58;1.25;;;;;;;21.52;59.84;95081.94;10288937;28;20041;-26
2023/09/21 15:17:16;;;;;;;16.20;1.80;;;;;;;21.56;59.88;95080.09;10286747;28;20049;-26
2023/09/21 15:22:17;;;;;;;10.95;2.13;;;;;;;21.56;59.75;95078.38;10289985;28;20082;-27
2023/09/21 15:27:19;;;;;;;1.98;0.88;;;;;;;21.55;59.89;95071.63;10285336;28;20613;-27
2023/09/21 15:32:19;;;;;;;1.88;1.13;;;;;;;21.55;59.97;95076.72;10288773;28;20027;-26
2023/09/21 15:37:23;;;;;;;2.83;1.20;;;;;;;21.54;60.05;95067.41;10286941;28;20042;-26
2023/09/21 15:42:23;;;;;;;4.03;1.30;;;;;;;21.54;60.00;95057.25;10293335;28;20293;-26
2023/09/21 15:47:23;;;;;;;8.83;1.20;;;;;;;21.54;60.00;95052.16;10291633;28;20524;-27
2023/09/21 15:52:24;;;;;;;2.90;0.90;;;;;;;21.55;60.00;95046.16;10295652;28;20305;-27
2023/09/21 15:57:24;;;;;;;5.55;1.10;;;;;;;21.55;59.73;95035.16;10302662;28;20053;-27
2023/09/21 16:02:25;;;;;;;1.95;0.70;;;;;;;21.64;59.69;95027.16;10306703;28;20045;-27
2023/09/21 16:07:25;;;;;;;5.85;0.90;;;;;;;21.66;59.65;95007.59;10304912;28;20042;-26
2023/09/21 16:12:26;;;;;;;0.90;0.73;;;;;;;21.68;59.69;95003.25;10297551;28;20047;-27
2023/09/21 16:17:26;;;;;;;1.50;0.80;;;;;;;21.68;59.71;95004.09;10299160;28;20057;-27
2023/09/21 16:22:27;;;;;;;1.48;0.73;;;;;;;21.69;59.67;95008.28;10295411;28;20619;-26
2023/09/21 16:27:28;;;;;;;1.25;0.75;;;;;;;21.69;59.61;95003.19;10296944;28;20125;-26
2023/09/21 16:32:28;;;;;;;1.70;0.80;;;;;;;21.68;59.71;95000.69;10298906;28;20038;-27
2023/09/21 16:37:29;;;;;;;2.22;0.90;;;;;;;21.70;59.84;95007.41;10299454;28;20039;-27
2023/09/21 16:42:29;;;;;;;2.40;1.17;;;;;;;21.71;59.96;95033.72;10296285;28;20042;-27
2023/09/21 16:47:29;;;;;;;2.27;0.70;;;;;;;21.72;59.94;95078.66;10298432;28;20359;-27
2023/09/21 16:52:30;;;;;;;5.20;1.10;;;;;;;21.71;60.00;95092.31;10294290;28;20043;-27
2023/09/21 16:57:31;;;;;;;1.80;0.90;;;;;;;21.71;60.13;95108.41;10296553;28;20464;-27
2023/09/21 17:02:34;;;;;;;2.75;1.13;;;;;;;21.71;60.07;95110.94;10297623;28;20457;-27
2023/09/21 17:07:35;;;;;;;3.72;1.00;;;;;;;21.70;60.58;95114.38;10285722;28;20042;-27
2023/09/21 17:12:35;;;;;;;1.40;0.73;;;;;;;21.64;60.25;95114.56;10284795;28;20035;-29
2023/09/21 17:17:37;;;;;;;3.28;1.08;;;;;;;21.70;60.48;95124.56;10291166;28;20113;-27
2023/09/21 17:22:40;;;;;;;1.67;0.88;;;;;;;21.69;60.54;95133.09;10286768;28;20517;-27
2023/09/21 17:27:42;;;;;;;2.50;1.38;;;;;;;21.68;60.67;95105.97;10288705;28;20031;-28
2023/09/21 17:32:44;;;;;;;2.45;1.27;;;;;;;21.69;60.38;95092.34;10293523;28;20027;-27
2023/09/21 17:37:44;;;;;;;1.77;0.90;;;;;;;21.70;60.11;95162.78;10291577;28;20157;-26
2023/09/21 17:42:46;;;;;;;3.73;1.17;;;;;;;21.71;60.13;95261.22;10288352;28;20026;-27
2023/09/21 17:47:47;;;;;;;5.68;1.20;;;;;;;21.66;61.12;95303.84;10291922;28;20497;-28
2023/09/21 17:52:49;;;;;;;2.05;0.80;;;;;;;21.70;60.47;95323.25;10288198;28;20409;-27
2023/09/21 17:57:50;;;;;;;2.35;1.20;;;;;;;21.65;61.06;95342.94;10284456;28;20030;-27
2023/09/21 18:02:50;;;;;;;3.07;0.97;;;;;;;21.68;60.54;95353.03;10287342;28;20033;-27
2023/09/21 18:07:51;;;;;;;1.58;1.10;;;;;;;21.67;60.59;95361.56;10285019;28;20042;-30
2023/09/21 18:12:51;;;;;;;11.43;1.40;;;;;;;21.67;61.64;95389.59;10288513;28;20031;-27
2023/09/21 18:17:52;;;;;;;3.93;1.13;;;;;;;21.69;60.72;95394.63;10283682;28;20071;-27
2023/09/21 18:22:52;;;;;;;1.23;0.87;;;;;;;21.68;60.53;95392.97;10283147;28;20027;-27
2023/09/21 18:27:54;;;;;;;1.92;0.90;;;;;;;21.67;60.45;95411.69;10282887;28;20126;-27
2023/09/21 18:32:54;;;;;;;1.95;0.80;;;;;;;21.63;60.33;95416.00;10284315;28;20043;-27
2023/09/21 18:37:56;;;;;;;5.32;1.30;;;;;;;21.68;62.42;95444.75;10284939;28;20042;-27
2023/09/21 18:42:56;;;;;;;0.98;0.70;;;;;;;21.67;60.27;95468.56;10285294;28;20042;-27
2023/09/21 18:47:57;;;;;;;1.40;0.85;;;;;;;21.67;60.23;95468.56;10282619;28;20469;-27
2023/09/21 18:52:57;;;;;;;2.17;0.95;;;;;;;21.66;60.36;95461.78;10283368;28;20637;-28
2023/09/21 18:57:58;;;;;;;4.17;0.80;;;;;;;21.66;60.34;95438.84;10284015;28;20038;-27
2023/09/21 19:02:59;;;;;;;1.67;0.80;;;;;;;21.66;60.20;95450.78;10283683;28;20039;-27
2023/09/21 19:08:00;;;;;;;1.08;0.90;;;;;;;21.62;60.21;95455.09;10280849;28;20089;-27
2023/09/21 19:13:01;;;;;;;3.15;0.77;;;;;;;21.65;60.31;95452.47;10281220;28;20456;-27
2023/09/21 19:18:01;;;;;;;1.20;0.73;;;;;;;21.64;60.25;95468.59;10296123;28;20138;-27
2023/09/21 19:23:05;;;;;;;1.08;0.57;;;;;;;21.64;60.07;95476.25;10296674;28;20052;-27
2023/09/21 19:28:05;;;;;;;2.58;0.75;;;;;;;21.64;60.50;95473.69;10298071;28;20035;-26
2023/09/21 19:33:07;;;;;;;2.40;0.83;;;;;;;21.64;60.07;95477.97;10298845;28;20035;-27
2023/09/21 19:38:08;;;;;;;0.95;0.57;;;;;;;21.63;60.39;95484.78;10289323;28;20034;-27
2023/09/21 19:43:08;;;;;;;1.13;0.87;;;;;;;21.64;60.04;95508.53;10284477;28;20027;-27
2023/09/21 19:48:08;;;;;;;2.50;1.00;;;;;;;21.61;59.92;95508.63;10285141;28;20497;-27
2023/09/21 19:53:10;;;;;;;0.90;0.60;;;;;;;21.61;60.19;95488.25;10285894;28;20101;-27
2023/09/21 19:58:10;;;;;;;0.70;0.70;;;;;;;21.61;59.79;95468.72;10284327;28;20067;-27
2023/09/21 20:03:15;;;;;;;0.97;0.67;;;;;;;21.64;60.03;95473.69;10290019;28;20034;-27
2023/09/21 20:08:16;;;;;;;0.80;0.80;;;;;;;21.61;60.10;95466.16;10279776;28;20290;-27
2023/09/21 20:13:16;;;;;;;2.07;0.93;;;;;;;21.63;60.15;95461.84;10289706;28;20042;-27
2023/09/21 20:18:16;;;;;;;1.10;0.70;;;;;;;21.63;60.10;95474.59;10301628;28;20062;-27
2023/09/21 20:23:19;;;;;;;2.03;0.77;;;;;;;21.59;60.05;95475.59;10303934;28;20030;-28
2023/09/21 20:28:21;;;;;;;1.67;0.90;;;;;;;21.62;60.06;95495.00;10302845;28;20030;-27
2023/09/21 20:33:22;;;;;;;0.80;0.57;;;;;;;21.59;59.90;95480.69;10300646;28;20124;-27
2023/09/21 20:38:22;;;;;;;0.80;0.60;;;;;;;21.60;60.04;95489.97;10294400;28;20035;-27
2023/09/21 20:43:23;;;;;;;1.02;0.60;;;;;;;21.60;60.24;95489.97;10287158;28;20038;-27
2023/09/21 20:48:23;;;;;;;1.53;0.60;;;;;;;21.59;59.83;95485.78;10292867;28;20031;-27
2023/09/21 20:53:24;;;;;;;1.00;0.77;;;;;;;21.58;60.11;95489.19;10287912;28;20783;-28
2023/09/21 20:58:24;;;;;;;0.70;0.55;;;;;;;21.58;60.06;95489.19;10283122;28;20434;-27
2023/09/21 21:03:25;;;;;;;2.63;0.52;;;;;;;21.59;60.04;95487.47;10292079;28;20034;-27
2023/09/21 21:08:28;;;;;;;1.20;0.50;;;;;;;21.55;59.80;95489.28;10289081;28;20030;-27
2023/09/21 21:13:29;;;;;;;4.05;0.57;;;;;;;21.57;60.02;95481.59;10290514;28;20482;-27
2023/09/21 21:18:29;;;;;;;0.67;0.60;;;;;;;21.57;59.90;95477.31;10291973;28;20085;-27
2023/09/21 21:23:30;;;;;;;1.48;0.50;;;;;;;21.56;60.14;95475.66;10286652;28;20035;-27
2023/09/21 21:28:30;;;;;;;0.60;0.52;;;;;;;21.57;60.07;95472.22;10289988;28;20097;-27
2023/09/21 21:33:30;;;;;;;1.40;0.67;;;;;;;21.57;60.28;95459.50;10290784;28;20047;-27
2023/09/21 21:38:31;;;;;;;1.40;0.40;;;;;;;21.57;59.93;95464.59;10287033;28;20046;-27
2023/09/21 21:43:31;;;;;;;0.67;0.57;;;;;;;21.57;60.13;95453.59;10288826;28;20517;-27
2023/09/21 21:48:32;;;;;;;1.33;0.50;;;;;;;21.51;59.91;95446.97;10287951;28;20563;-26
2023/09/21 21:53:32;;;;;;;0.40;0.40;;;;;;;21.55;59.89;95468.91;10290271;28;20486;-27
2023/09/21 21:58:32;;;;;;;0.73;0.50;;;;;;;21.54;60.03;95469.78;10287727;28;20043;-27
2023/09/21 22:03:34;;;;;;;0.88;0.60;;;;;;;21.54;59.85;95482.53;10288829;28;20652;-27
2023/09/21 22:08:34;;;;;;;0.30;0.30;;;;;;;21.56;60.03;95493.47;10286183;28;20066;-27
2023/09/21 22:13:36;;;;;;;0.90;0.63;;;;;;;21.56;59.77;95511.31;10286670;28;20094;-27
2023/09/21 22:18:37;;;;;;;1.17;0.60;;;;;;;21.54;60.24;95518.19;10288583;28;20129;-28
2023/09/21 22:23:38;;;;;;;0.65;0.38;;;;;;;21.55;59.88;95507.09;10286515;28;20045;-27
2023/09/21 22:28:38;;;;;;;0.75;0.57;;;;;;;21.53;60.02;95516.50;10287322;28;20110;-27
2023/09/21 22:33:39;;;;;;;0.90;0.60;;;;;;;21.54;59.96;95518.19;10288574;28;20560;-27
2023/09/21 22:38:40;;;;;;;2.35;0.40;;;;;;;21.53;59.79;95503.78;10283410;28;20290;-27
2023/09/21 22:43:41;;;;;;;0.50;0.40;;;;;;;21.47;59.86;95486.13;10286804;28;20031;-27
2023/09/21 22:48:45;;;;;;;0.40;0.40;;;;;;;21.54;59.97;95499.50;10295446;28;20050;-27
2023/09/21 22:53:48;;;;;;;3.67;0.43;;;;;;;21.53;59.96;95503.78;10287665;28;20035;-27
2023/09/21 22:58:49;;;;;;;0.40;0.40;;;;;;;21.51;59.78;95502.16;10285979;28;20035;-27
2023/09/21 23:03:49;;;;;;;0.60;0.55;;;;;;;21.53;59.64;95521.59;10285116;28;20035;-27
2023/09/21 23:08:51;;;;;;;0.50;0.50;;;;;;;21.53;59.72;95520.75;10287700;28;20053;-27
2023/09/21 23:13:55;;;;;;;0.68;0.55;;;;;;;21.53;59.73;95521.59;10280790;28;20038;-27
2023/09/21 23:18:55;;;;;;;0.55;0.50;;;;;;;21.53;59.83;95505.47;10287280;28;20050;-27